Time;durP1;ratioP1;P1;durP2;ratioP2;P2;SDS_P1;SDS_P2;PMS_P1;PMS_P2;Temp;Humidity;BMP_temperature;BMP_pressure;BME280_temperature;BME280_humidity;BME280_pressure;Samples;Min_cycle;Max_cycle;Signal;HPM_P1;HPM_P2
2022/06/13 00:01:22;;;;;;;4.27;3.27;;;-7.10;99.90;;;;;;5137863;27;20161;-67
2022/06/13 00:03:48;;;;;;;10.40;3.63;;;-6.40;99.90;;;;;;5137711;27;20169;-67
2022/06/13 00:06:14;;;;;;;10.40;4.50;;;-6.60;99.90;;;;;;5137377;27;20181;-73
2022/06/13 00:08:40;;;;;;;8.80;3.30;;;-7.50;99.90;;;;;;5137576;27;20269;-69
2022/06/13 00:11:09;;;;;;;11.03;4.33;;;-9.30;99.90;;;;;;5137726;27;20245;-72
2022/06/13 00:13:41;;;;;;;5.23;3.50;;;-8.40;99.90;;;;;;5137504;27;20226;-73
2022/06/13 00:16:08;;;;;;;5.43;4.20;;;-9.10;99.90;;;;;;5137444;27;20165;-69
2022/06/13 00:18:35;;;;;;;5.80;3.27;;;-9.10;99.90;;;;;;5137332;27;20556;-68
2022/06/13 00:21:01;;;;;;;9.10;3.67;;;-8.60;99.90;;;;;;5136112;27;20198;-67
2022/06/13 00:23:26;;;;;;;5.47;3.73;;;-8.10;99.90;;;;;;5137293;27;20165;-66
2022/06/13 00:25:52;;;;;;;5.70;3.17;;;-9.00;99.90;;;;;;5137414;27;20162;-69
2022/06/13 00:28:18;;;;;;;6.70;3.27;;;-8.50;99.90;;;;;;5137087;27;20170;-68
2022/06/13 00:30:44;;;;;;;5.17;3.13;;;-6.80;99.90;;;;;;5136281;27;20480;-72
2022/06/13 00:33:10;;;;;;;7.83;4.17;;;-6.20;99.90;;;;;;5137111;27;20162;-69
2022/06/13 00:35:36;;;;;;;8.63;3.40;;;-7.20;99.90;;;;;;5135804;27;20273;-66
2022/06/13 00:38:02;;;;;;;8.70;3.60;;;-7.10;99.90;;;;;;5136942;27;20529;-65
2022/06/13 00:40:31;;;;;;;7.77;3.97;;;-8.80;99.90;;;;;;5137250;27;20207;-68
2022/06/13 00:42:57;;;;;;;4.80;3.23;;;-10.10;99.90;;;;;;5137061;27;20287;-66
2022/06/13 00:45:32;;;;;;;6.73;3.53;;;-12.50;99.90;;;;;;5137157;27;20248;-66
2022/06/13 00:47:58;;;;;;;3.47;2.90;;;-12.80;99.90;;;;;;5136077;27;20508;-65
2022/06/13 00:50:35;;;;;;;6.33;3.23;;;-13.10;99.90;;;;;;5136807;27;20170;-65
2022/06/13 00:53:07;;;;;;;10.10;4.00;;;-9.90;99.90;;;;;;5136912;27;20579;-64
2022/06/13 00:55:40;;;;;;;7.73;3.47;;;-10.40;99.90;;;;;;5136928;27;20500;-69
2022/06/13 00:58:07;;;;;;;7.20;3.20;;;-11.70;99.90;;;;;;5136592;27;20243;-68
2022/06/13 01:00:35;;;;;;;4.27;2.90;;;-11.60;99.90;;;;;;5136957;27;20162;-69
2022/06/13 01:03:02;;;;;;;4.57;2.87;;;-9.20;99.90;;;;;;5136804;27;20591;-72
2022/06/13 01:05:31;;;;;;;7.27;4.33;;;-9.40;99.90;;;;;;5136430;27;20247;-67
2022/06/13 01:08:00;;;;;;;8.70;3.73;;;-7.00;99.90;;;;;;5136556;27;20203;-68
2022/06/13 01:13:12;;;;;;;19.67;5.13;;;-6.30;99.90;;;;;;5136628;28;20250;-70
2022/06/13 01:15:56;;;;;;;4.83;3.87;;;-6.00;99.90;;;;;;5136665;27;20193;-66
2022/06/13 01:18:50;;;;;;;6.60;3.60;;;-5.80;99.90;;;;;;5136554;27;20164;-68
2022/06/13 01:21:34;;;;;;;5.63;3.80;;;-5.60;99.90;;;;;;5136605;27;20166;-68
2022/06/13 01:24:26;;;;;;;7.03;3.60;;;-8.40;99.90;;;;;;5136599;27;20170;-67
2022/06/13 01:27:07;;;;;;;11.43;3.77;;;-7.20;99.90;;;;;;5136567;27;20168;-66
2022/06/13 01:30:01;;;;;;;8.20;3.27;;;-7.40;99.90;;;;;;5136546;27;20465;-67
2022/06/13 01:32:31;;;;;;;9.20;3.27;;;-8.30;99.90;;;;;;5136824;27;20169;-66
2022/06/13 01:35:25;;;;;;;9.87;3.37;;;-9.30;99.90;;;;;;5135933;27;20296;-66
2022/06/13 01:38:29;;;;;;;4.57;3.83;;;-13.90;99.90;;;;;;5127136;27;20612;-66
2022/06/13 01:41:16;;;;;;;6.60;3.20;;;-12.30;99.90;;;;;;5137340;27;20573;-65
2022/06/13 01:44:09;;;;;;;6.70;4.43;;;-11.00;99.90;;;;;;5140437;27;20177;-70
2022/06/13 01:47:11;;;;;;;6.10;3.87;;;-10.30;99.90;;;;;;5140437;27;20166;-71
2022/06/13 01:50:26;;;;;;;6.57;4.03;;;-10.00;99.90;;;;;;5117661;27;20173;-66
2022/06/13 01:53:03;;;;;;;10.17;4.27;;;-9.40;99.90;;;;;;5138138;27;20173;-66
2022/06/13 01:56:12;;;;;;;11.23;4.30;;;-10.00;99.90;;;;;;5140184;27;20201;-71
2022/06/13 01:58:44;;;;;;;9.03;4.30;;;-10.00;99.90;;;;;;5138938;27;20173;-68
2022/06/13 02:01:10;;;;;;;9.30;4.90;;;-12.20;99.90;;;;;;5139932;27;20165;-73
2022/06/13 02:03:52;;;;;;;9.77;3.33;;;-10.80;99.90;;;;;;5138670;27;20169;-69
2022/06/13 02:06:29;;;;;;;8.00;4.07;;;-11.10;99.90;;;;;;5139743;27;20165;-69
2022/06/13 02:09:03;;;;;;;6.87;3.93;;;-9.40;99.90;;;;;;5139913;27;20679;-72
2022/06/13 02:11:50;;;;;;;9.07;4.23;;;-8.50;99.90;;;;;;5140007;27;20168;-71
2022/06/13 02:14:44;;;;;;;7.13;4.37;;;-7.70;99.90;;;;;;5139779;27;20314;-71
2022/06/13 02:17:16;;;;;;;11.67;4.50;;;-10.10;99.90;;;;;;5139510;27;20164;-69
2022/06/13 02:19:50;;;;;;;7.43;3.57;;;-7.20;99.90;;;;;;5139989;27;20183;-71
2022/06/13 02:22:32;;;;;;;11.93;4.77;;;-6.20;99.90;;;;;;5138698;27;20169;-71
2022/06/13 02:25:02;;;;;;;8.53;3.90;;;-7.10;99.90;;;;;;5139691;27;20248;-65
2022/06/13 02:27:33;;;;;;;10.80;4.20;;;-6.80;99.90;;;;;;5139752;27;20222;-65
2022/06/13 02:30:03;;;;;;;10.60;4.87;;;-5.70;99.90;;;;;;5139520;27;20187;-69
2022/06/13 02:32:53;;;;;;;10.10;3.77;;;-7.60;99.90;;;;;;5139367;27;20176;-66
2022/06/13 02:35:35;;;;;;;13.63;5.27;;;-6.50;99.90;;;;;;5138183;27;20228;-71
2022/06/13 02:38:19;;;;;;;9.97;4.33;;;-5.40;99.90;;;;;;5139342;27;20611;-65
2022/06/13 02:41:19;;;;;;;14.33;4.77;;;-5.50;99.90;;;;;;5139395;27;20251;-66
2022/06/13 02:44:05;;;;;;;9.27;4.43;;;-5.90;99.90;;;;;;5130178;27;20192;-68
2022/06/13 02:46:48;;;;;;;12.20;4.43;;;-5.40;99.90;;;;;;5138485;27;20200;-70
2022/06/13 02:49:34;;;;;;;12.77;4.20;;;-9.60;99.90;;;;;;5139190;27;20189;-71
2022/06/13 02:52:18;;;;;;;17.13;4.87;;;-11.80;99.90;;;;;;5126257;27;20607;-67
2022/06/13 02:54:57;;;;;;;15.03;5.47;;;-11.20;99.90;;;;;;5138995;27;20189;-71
2022/06/13 02:57:59;;;;;;;11.67;5.10;;;-12.60;99.90;;;;;;5138982;27;20256;-72
2022/06/13 03:00:38;;;;;;;11.73;4.47;;;-12.20;99.90;;;;;;5138628;27;20181;-66
2022/06/13 03:03:13;;;;;;;10.47;4.73;;;-12.70;99.90;;;;;;5139030;27;20632;-70
2022/06/13 03:05:44;;;;;;;13.60;4.30;;;-11.10;99.90;;;;;;5138781;27;20181;-71
2022/06/13 03:09:04;;;;;;;10.43;5.90;;;-12.30;99.90;;;;;;5138692;27;20201;-70
2022/06/13 03:11:44;;;;;;;13.23;5.17;;;-10.10;99.90;;;;;;5095587;28;20175;-67
2022/06/13 03:14:16;;;;;;;9.87;4.73;;;-11.50;99.90;;;;;;5095759;28;20221;-69
2022/06/13 03:17:03;;;;;;;18.20;5.93;;;-9.20;99.90;;;;;;5126027;27;20174;-68
2022/06/13 03:19:47;;;;;;;13.77;4.63;;;-8.90;99.90;;;;;;5138660;27;20154;-66
2022/06/13 03:22:33;;;;;;;10.20;5.30;;;-9.60;99.90;;;;;;5138590;27;20207;-68
2022/06/13 03:25:08;;;;;;;13.87;4.33;;;-9.10;99.90;;;;;;5138571;27;20204;-67
2022/06/13 03:27:52;;;;;;;16.77;4.43;;;-10.30;99.90;;;;;;5138429;27;20165;-67
2022/06/13 03:30:21;;;;;;;12.27;5.00;;;-10.00;99.90;;;;;;5138087;27;20172;-66
2022/06/13 03:35:55;;;;;;;9.00;5.17;;;-9.30;99.90;;;;;;5138149;27;20215;-67
2022/06/13 03:38:27;;;;;;;11.70;4.80;;;-9.80;99.90;;;;;;5138011;27;20177;-66
2022/06/13 03:40:56;;;;;;;25.47;6.37;;;-10.70;99.90;;;;;;5137141;27;20169;-66
2022/06/13 03:43:32;;;;;;;11.07;4.20;;;-6.40;99.90;;;;;;5138128;27;20161;-69
2022/06/13 03:46:16;;;;;;;11.03;4.70;;;-11.20;99.90;;;;;;5137924;27;20173;-66
2022/06/13 03:49:11;;;;;;;12.03;6.03;;;-8.30;99.90;;;;;;5136937;27;20166;-71
2022/06/13 03:51:42;;;;;;;12.43;5.03;;;-6.40;99.90;;;;;;5128461;27;20640;-67
2022/06/13 03:54:15;;;;;;;13.00;5.20;;;-6.50;99.90;;;;;;5137958;27;20496;-68
2022/06/13 03:56:47;;;;;;;10.93;4.60;;;-6.80;99.90;;;;;;5136764;27;20249;-69
2022/06/13 03:59:16;;;;;;;20.03;6.87;;;-6.90;99.90;;;;;;5136416;27;20165;-69
2022/06/13 04:01:51;;;;;;;19.73;6.20;;;-7.60;99.90;;;;;;5137509;27;20162;-69
2022/06/13 04:04:26;;;;;;;10.50;5.07;;;-12.20;99.90;;;;;;5137196;27;20171;-65
2022/06/13 04:06:54;;;;;;;18.47;5.97;;;-11.00;99.90;;;;;;5137434;27;20172;-68
2022/06/13 04:09:24;;;;;;;12.00;5.50;;;-10.30;99.90;;;;;;5137735;27;20200;-70
2022/06/13 04:12:07;;;;;;;12.23;5.77;;;-9.90;99.90;;;;;;5137438;27;20165;-66
2022/06/13 04:14:39;;;;;;;11.23;5.47;;;-9.00;99.90;;;;;;5136166;27;20616;-71
2022/06/13 04:17:22;;;;;;;13.80;5.77;;;-10.60;99.90;;;;;;5137382;27;20171;-71
2022/06/13 04:20:07;;;;;;;13.93;6.07;;;-11.10;99.90;;;;;;5137578;27;20564;-68
2022/06/13 04:22:52;;;;;;;11.10;4.97;;;-7.80;99.90;;;;;;5136228;27;20161;-70
2022/06/13 04:25:43;;;;;;;13.30;5.87;;;-7.70;99.90;;;;;;5137426;27;20172;-68
2022/06/13 04:28:33;;;;;;;12.37;4.27;;;-7.70;99.90;;;;;;5136026;27;20169;-68
2022/06/13 04:31:01;;;;;;;14.83;6.07;;;-7.20;99.90;;;;;;5137268;27;20298;-70
2022/06/13 04:33:29;;;;;;;14.77;6.47;;;-8.30;99.90;;;;;;5137206;27;20464;-69
2022/06/13 04:35:56;;;;;;;14.10;7.07;;;-9.60;99.90;;;;;;5137068;27;20287;-70
2022/06/13 04:38:23;;;;;;;12.80;5.63;;;-8.70;99.90;;;;;;5136976;27;20195;-66
2022/06/13 04:40:53;;;;;;;11.43;5.00;;;-11.20;99.90;;;;;;5137189;27;20161;-70
2022/06/13 04:43:23;;;;;;;16.40;5.57;;;-11.10;99.90;;;;;;5136901;27;20162;-69
2022/06/13 04:46:10;;;;;;;13.20;4.80;;;-10.50;99.90;;;;;;5137116;27;20569;-70
2022/06/13 04:48:42;;;;;;;14.63;5.23;;;-13.50;99.90;;;;;;5136881;27;20165;-70
2022/06/13 04:51:11;;;;;;;14.03;6.03;;;-11.00;99.90;;;;;;5137017;27;20530;-71
2022/06/13 04:53:59;;;;;;;14.10;5.17;;;-12.40;99.90;;;;;;5136745;27;20169;-67
2022/06/13 04:56:25;;;;;;;15.07;5.67;;;-9.70;99.90;;;;;;5136633;27;20553;-70
2022/06/13 04:58:54;;;;;;;21.53;6.53;;;-9.80;99.90;;;;;;5136875;27;20592;-70
2022/06/13 05:01:28;;;;;;;11.53;5.63;;;-10.30;99.90;;;;;;5137042;27;20169;-71
2022/06/13 05:03:57;;;;;;;14.53;5.43;;;-10.80;99.90;;;;;;5136783;27;20204;-66
2022/06/13 05:06:44;;;;;;;11.27;5.47;;;-11.00;99.90;;;;;;5136749;27;20595;-67
2022/06/13 05:09:09;;;;;;;11.37;5.93;;;-9.90;99.90;;;;;;5136781;27;20169;-68
2022/06/13 05:12:04;;;;;;;15.03;7.30;;;-9.40;99.90;;;;;;5136445;27;20568;-69
2022/06/13 05:15:03;;;;;;;15.43;5.80;;;-9.80;99.90;;;;;;5136429;27;20608;-69
2022/06/13 05:18:11;;;;;;;20.90;5.60;;;-9.90;99.90;;;;;;5122937;27;20230;-67
2022/06/13 05:20:55;;;;;;;15.87;5.60;;;-9.60;99.90;;;;;;5135005;27;20250;-67
2022/06/13 05:23:48;;;;;;;10.73;5.50;;;-10.40;99.90;;;;;;5140755;27;20206;-68
2022/06/13 05:26:14;;;;;;;22.50;7.83;;;-9.60;99.90;;;;;;5140578;27;20170;-68
2022/06/13 05:28:40;;;;;;;12.73;6.20;;;-10.10;99.90;;;;;;5140765;27;20169;-70
2022/06/13 05:31:18;;;;;;;13.73;6.30;;;-9.70;99.90;;;;;;5139667;27;20219;-66
2022/06/13 05:33:45;;;;;;;14.73;5.93;;;-10.00;99.90;;;;;;5140665;27;20528;-68
2022/06/13 05:36:14;;;;;;;12.20;5.87;;;-9.90;99.90;;;;;;5140570;27;20467;-68
2022/06/13 05:38:43;;;;;;;22.27;7.20;;;-14.80;99.90;;;;;;5140501;27;20197;-68
2022/06/13 05:41:09;;;;;;;18.73;6.23;;;-12.60;99.90;;;;;;5140360;27;20161;-67
2022/06/13 05:43:36;;;;;;;11.60;5.17;;;-17.10;99.90;;;;;;5140499;27;20169;-65
2022/06/13 05:46:06;;;;;;;13.53;5.33;;;-18.50;99.90;;;;;;5140435;27;20645;-67
2022/06/13 05:48:33;;;;;;;11.83;6.43;;;-13.50;99.90;;;;;;5139284;27;20170;-68
2022/06/13 05:50:59;;;;;;;17.23;7.10;;;-13.90;99.90;;;;;;5142666;27;20177;-66
2022/06/13 05:53:26;;;;;;;15.73;6.13;;;-16.20;99.90;;;;;;5137962;27;20252;-65
2022/06/13 05:55:59;;;;;;;16.60;6.37;;;-11.70;99.90;;;;;;5137764;27;20201;-66
2022/06/13 05:58:25;;;;;;;13.63;5.87;;;-16.30;99.90;;;;;;5139538;27;20173;-67
2022/06/13 06:01:01;;;;;;;20.93;6.23;;;-14.50;99.90;;;;;;5138485;27;20176;-67
2022/06/13 06:03:27;;;;;;;18.23;6.80;;;-13.60;99.90;;;;;;5139034;27;20165;-66
2022/06/13 06:05:54;;;;;;;18.73;6.87;;;-8.80;99.90;;;;;;5139249;27;20177;-68
2022/06/13 06:08:23;;;;;;;15.70;6.83;;;-14.80;99.90;;;;;;5139081;27;20205;-66
2022/06/13 06:10:50;;;;;;;17.37;6.37;;;-22.90;99.90;;;;;;5139698;27;20165;-69
2022/06/13 06:13:16;;;;;;;17.83;7.50;;;-15.40;99.90;;;;;;5138564;27;20175;-67
2022/06/13 06:15:44;;;;;;;13.37;6.63;;;-19.10;99.90;;;;;;5138396;27;20198;-68
2022/06/13 06:18:10;;;;;;;12.93;5.90;;;-23.30;99.90;;;;;;5139749;27;20187;-68
2022/06/13 06:20:36;;;;;;;16.10;6.67;;;-17.20;99.90;;;;;;5138779;27;20226;-67
2022/06/13 06:23:03;;;;;;;18.20;6.50;;;-26.10;99.90;;;;;;5137801;27;20170;-67
2022/06/13 06:25:29;;;;;;;13.80;5.90;;;-30.20;99.90;;;;;;5137554;27;20208;-66
2022/06/13 06:27:55;;;;;;;19.33;6.70;;;-22.10;99.90;;;;;;5136601;27;20466;-67
2022/06/13 06:30:21;;;;;;;14.53;7.03;;;-21.50;99.90;;;;;;5139509;27;20264;-68
2022/06/13 06:32:50;;;;;;;15.97;7.47;;;-20.70;99.90;;;;;;5138781;27;20165;-68
2022/06/13 06:35:15;;;;;;;11.47;5.87;;;-17.20;99.90;;;;;;5139081;27;20228;-69
2022/06/13 06:37:48;;;;;;;13.27;6.53;;;-19.80;99.90;;;;;;5138400;27;20213;-66
2022/06/13 06:40:17;;;;;;;13.77;5.17;;;-17.90;99.90;;;;;;5119281;27;20875;-66
2022/06/13 06:42:43;;;;;;;13.00;5.73;;;-16.10;99.90;;;;;;5131320;27;20177;-67
2022/06/13 06:45:10;;;;;;;14.07;11.00;;;-19.90;99.90;;;;;;5121490;27;21307;-67
2022/06/13 06:47:36;;;;;;;22.47;6.23;;;-25.30;99.90;;;;;;5112777;27;20209;-68
2022/06/13 06:50:03;;;;;;;17.60;8.33;;;-19.70;99.90;;;;;;5127880;27;20177;-67
2022/06/13 06:52:29;;;;;;;6.87;4.63;;;-19.20;99.90;;;;;;5127254;27;20173;-67
2022/06/13 07:00:24;;;;;;;11.77;4.73;;;-9.60;99.90;;;;;;5131001;27;20202;-67
2022/06/13 07:02:50;;;;;;;10.23;3.90;;;-11.30;99.90;;;;;;5135044;27;20170;-66
2022/06/13 07:05:17;;;;;;;7.60;4.80;;;-13.20;99.90;;;;;;5134865;27;20177;-66
2022/06/13 07:07:43;;;;;;;9.83;3.80;;;-12.90;99.90;;;;;;5132991;27;20243;-67
2022/06/13 07:10:11;;;;;;;10.00;4.00;;;-14.40;99.90;;;;;;5126684;27;20527;-67
2022/06/13 07:12:36;;;;;;;9.13;4.37;;;-11.10;99.90;;;;;;5133832;27;20219;-67
2022/06/13 07:15:02;;;;;;;8.50;3.90;;;-12.30;99.90;;;;;;5133588;27;20217;-67
2022/06/13 07:17:28;;;;;;;8.83;4.90;;;-12.00;99.90;;;;;;5132793;27;20580;-69
2022/06/13 07:19:54;;;;;;;7.53;4.73;;;-10.70;99.90;;;;;;5133507;27;20215;-68
2022/06/13 07:22:22;;;;;;;11.23;4.47;;;-10.60;99.90;;;;;;5133115;27;20208;-67
2022/06/13 07:24:47;;;;;;;8.67;3.50;;;-9.40;99.90;;;;;;5134269;27;20197;-68
2022/06/13 07:27:15;;;;;;;10.50;3.37;;;-16.70;99.90;;;;;;5131711;27;20217;-70
2022/06/13 07:29:41;;;;;;;11.53;3.93;;;-18.50;98.90;;;;;;5133714;27;20200;-68
2022/06/13 07:32:14;;;;;;;6.57;2.87;;;-16.20;97.70;;;;;;5133820;27;20260;-68
2022/06/13 07:34:42;;;;;;;8.93;3.03;;;-17.20;97.00;;;;;;5133328;27;20208;-66
2022/06/13 07:37:11;;;;;;;9.23;3.47;;;-21.40;95.00;;;;;;5133783;27;20604;-66
2022/06/13 07:39:36;;;;;;;4.33;2.03;;;-20.10;94.40;;;;;;5132986;27;20284;-70
2022/06/13 07:42:04;;;;;;;8.57;3.47;;;-12.60;94.70;;;;;;5133325;27;20249;-68
2022/06/13 07:44:36;;;;;;;3.20;2.90;;;-13.30;95.30;;;;;;5135341;27;20189;-69
2022/06/13 07:47:04;;;;;;;10.90;2.93;;;-10.70;95.50;;;;;;5134398;27;20184;-69
2022/06/13 07:49:30;;;;;;;3.53;2.50;;;-13.80;95.00;;;;;;5130905;27;20189;-67
2022/06/13 07:51:56;;;;;;;4.73;3.17;;;-8.60;96.00;;;;;;5132765;27;20261;-70
2022/06/13 07:54:22;;;;;;;7.10;2.73;;;-11.50;95.20;;;;;;5133088;27;20247;-71
2022/06/13 07:56:48;;;;;;;6.90;2.53;;;-10.10;95.70;;;;;;5136824;27;20177;-68
2022/06/13 07:59:22;;;;;;;6.57;2.57;;;-13.00;94.00;;;;;;5133570;27;20208;-70
2022/06/13 08:01:48;;;;;;;4.93;2.73;;;-12.40;93.90;;;;;;5133454;27;20165;-69
2022/06/13 08:04:13;;;;;;;6.57;3.13;;;-9.70;94.90;;;;;;5133490;27;20573;-67
2022/06/13 08:06:42;;;;;;;5.17;1.77;;;-9.90;94.80;;;;;;5130895;27;20192;-68
2022/06/13 08:09:11;;;;;;;13.00;4.20;;;-10.70;94.20;;;;;;5134334;27;20212;-66
2022/06/13 08:11:45;;;;;;;3.10;2.30;;;-15.70;93.50;;;;;;5132129;27;20181;-71
2022/06/13 08:14:12;;;;;;;4.00;2.07;;;-16.90;93.70;;;;;;5133815;27;20507;-66
2022/06/13 08:16:38;;;;;;;11.70;3.33;;;-24.70;90.10;;;;;;5132646;27;20620;-70
2022/06/13 08:19:04;;;;;;;6.10;2.40;;;-24.10;90.00;;;;;;5132136;27;20219;-67
2022/06/13 08:21:32;;;;;;;11.90;3.20;;;-17.30;91.90;;;;;;5131064;27;20607;-71
2022/06/13 08:23:58;;;;;;;6.87;2.60;;;-18.30;91.40;;;;;;5130287;27;20217;-72
2022/06/13 08:26:24;;;;;;;3.40;2.97;;;-22.70;90.00;;;;;;5132811;27;20173;-71
2022/06/13 08:28:49;;;;;;;6.77;3.20;;;-18.00;90.60;;;;;;5132925;27;20176;-67
2022/06/13 08:31:19;;;;;;;11.20;3.33;;;-19.60;90.10;;;;;;5133292;27;20173;-71
2022/06/13 08:33:45;;;;;;;8.90;3.27;;;-18.90;88.50;;;;;;5129561;27;20169;-66
2022/06/13 08:36:12;;;;;;;8.23;4.07;;;-13.80;90.60;;;;;;5132572;27;20240;-66
2022/06/13 08:38:39;;;;;;;6.33;2.57;;;-16.90;88.30;;;;;;5132261;27;20265;-71
2022/06/13 08:41:11;;;;;;;6.03;3.17;;;-7.70;91.70;;;;;;5131272;27;20588;-66
2022/06/13 08:44:05;;;;;;;4.00;2.63;;;-9.70;91.40;;;;;;5132601;27;20212;-73
2022/06/13 08:46:34;;;;;;;12.53;3.23;;;-6.90;92.20;;;;;;5110891;27;20234;-70
2022/06/13 08:49:14;;;;;;;5.07;3.10;;;-8.30;92.50;;;;;;5132711;27;20216;-67
2022/06/13 08:52:20;;;;;;;9.97;3.23;;;-8.10;91.70;;;;;;5132156;27;20181;-70
2022/06/13 08:54:53;;;;;;;15.83;4.33;;;-8.40;91.80;;;;;;5123680;27;20308;-67
2022/06/13 08:57:23;;;;;;;5.07;3.10;;;-4.50;92.70;;;;;;5132838;27;20178;-70
2022/06/13 08:59:55;;;;;;;10.93;4.13;;;-5.50;93.20;;;;;;5132411;27;20246;-70
2022/06/13 09:02:31;;;;;;;7.00;3.70;;;-5.60;93.70;;;;;;5131521;27;20182;-71
2022/06/13 09:05:22;;;;;;;4.73;3.33;;;-8.10;92.90;;;;;;5131336;27;20187;-67
2022/06/13 09:07:53;;;;;;;6.13;3.30;;;-6.60;94.10;;;;;;5129637;27;20248;-68
2022/06/13 09:10:31;;;;;;;6.87;3.13;;;-5.30;94.90;;;;;;5132454;27;20200;-70
2022/06/13 09:13:23;;;;;;;7.67;4.00;;;-6.20;95.30;;;;;;5132102;27;20177;-67
2022/06/13 09:15:59;;;;;;;4.97;3.33;;;-5.00;95.20;;;;;;5126132;27;20215;-69
2022/06/13 09:18:45;;;;;;;5.60;3.27;;;-3.90;94.40;;;;;;5132192;27;20197;-71
2022/06/13 09:21:23;;;;;;;7.70;3.40;;;-7.60;90.80;;;;;;5133051;28;20177;-68
2022/06/13 09:23:51;;;;;;;5.67;3.20;;;-9.90;90.90;;;;;;5130441;28;20188;-69
2022/06/13 09:26:35;;;;;;;10.20;3.20;;;-9.70;89.20;;;;;;5132829;27;20584;-71
2022/06/13 09:29:26;;;;;;;4.40;2.77;;;-13.00;87.70;;;;;;5128361;28;20211;-70
2022/06/13 09:32:02;;;;;;;3.30;3.03;;;-11.30;87.40;;;;;;5129536;28;20503;-68
2022/06/13 09:34:34;;;;;;;3.67;2.77;;;-5.10;84.30;;;;;;5131433;27;20204;-70
2022/06/13 09:37:12;;;;;;;4.60;2.70;;;-5.10;86.50;;;;;;5134813;27;20321;-70
2022/06/13 09:39:39;;;;;;;7.33;3.13;;;-5.20;88.20;;;;;;5131021;27;20192;-65
2022/06/13 09:42:21;;;;;;;4.57;2.47;;;-5.40;90.30;;;;;;5131891;27;20212;-68
2022/06/13 09:45:07;;;;;;;8.27;3.13;;;-6.70;89.50;;;;;;5127045;27;20192;-69
2022/06/13 09:47:58;;;;;;;3.03;2.50;;;-5.70;90.60;;;;;;5131633;27;20177;-65
2022/06/13 09:50:29;;;;;;;12.47;2.90;;;-4.40;91.20;;;;;;5124228;27;20185;-68
2022/06/13 09:53:15;;;;;;;3.93;2.90;;;-5.10;91.10;;;;;;5131352;27;20174;-68
2022/06/13 09:55:47;;;;;;;3.43;1.80;;;-4.60;91.20;;;;;;5132115;27;20205;-70
2022/06/13 09:58:37;;;;;;;5.37;3.33;;;-3.70;91.70;;;;;;5127867;28;20186;-68
2022/06/13 10:01:51;;;;;;;5.10;2.77;;;-5.40;91.10;;;;;;5127922;27;20170;-69
2022/06/13 10:04:49;;;;;;;3.77;3.20;;;-6.10;91.20;;;;;;5120228;27;20200;-68
2022/06/13 10:07:28;;;;;;;4.70;2.07;;;-2.90;90.80;;;;;;5126015;27;20248;-68
2022/06/13 10:10:01;;;;;;;5.93;2.40;;;-1.80;89.60;;;;;;5131535;27;20173;-68
2022/06/13 10:12:47;;;;;;;8.50;2.33;;;-4.80;87.30;;;;;;5131518;27;20170;-68
2022/06/13 10:15:37;;;;;;;5.23;2.27;;;-3.60;88.50;;;;;;5131567;27;20209;-67
2022/06/13 10:18:14;;;;;;;4.17;2.47;;;-5.10;85.70;;;;;;5132431;27;20639;-68
2022/06/13 10:21:05;;;;;;;4.07;2.60;;;-4.10;87.40;;;;;;5132739;27;20202;-68
2022/06/13 10:23:49;;;;;;;6.40;2.70;;;-6.80;84.90;;;;;;5132974;27;20229;-68
2022/06/13 10:26:36;;;;;;;6.60;1.87;;;-4.80;83.30;;;;;;5129802;27;20222;-68
2022/06/13 10:29:20;;;;;;;4.67;2.03;;;-7.60;82.00;;;;;;5132255;27;20260;-68
2022/06/13 10:32:16;;;;;;;1.97;1.83;;;-9.60;77.90;;;;;;5129763;27;20173;-68
2022/06/13 10:35:14;;;;;;;3.93;2.13;;;-7.30;79.00;;;;;;5132165;27;20229;-68
2022/06/13 10:38:18;;;;;;;2.63;2.07;;;-5.90;77.30;;;;;;5132173;27;20201;-68
2022/06/13 10:40:44;;;;;;;3.47;1.60;;;-13.70;74.60;;;;;;5113517;27;20192;-68
2022/06/13 10:43:10;;;;;;;4.33;1.67;;;-9.90;78.60;;;;;;5132578;27;20191;-69
2022/06/13 10:45:39;;;;;;;2.20;1.47;;;-12.20;72.10;;;;;;5131281;27;20184;-68
2022/06/13 10:48:23;;;;;;;2.60;2.10;;;-4.00;78.10;;;;;;5132427;27;20486;-68
2022/06/13 10:50:58;;;;;;;19.07;2.13;;;-6.90;77.10;;;;;;5130193;27;20248;-69
2022/06/13 10:53:56;;;;;;;2.63;2.43;;;-4.60;80.30;;;;;;5131133;27;20183;-68
2022/06/13 10:57:01;;;;;;;4.73;2.37;;;-1.60;81.30;;;;;;5122001;27;20204;-64
2022/06/13 10:59:33;;;;;;;4.50;2.30;;;-2.80;80.90;;;;;;5132156;27;20491;-67
2022/06/13 11:02:05;;;;;;;3.63;1.40;;;-2.60;82.80;;;;;;5133737;27;20698;-71
2022/06/13 11:04:32;;;;;;;3.60;1.50;;;-3.40;81.40;;;;;;5134347;27;20169;-70
2022/06/13 11:07:10;;;;;;;4.00;2.60;;;-4.20;79.90;;;;;;5134661;27;20189;-69
2022/06/13 11:09:44;;;;;;;1.70;1.47;;;-2.20;80.20;;;;;;5135244;27;20199;-67
2022/06/13 11:12:19;;;;;;;4.60;1.77;;;-2.90;80.90;;;;;;5134080;27;20174;-71
2022/06/13 11:23:44;;;;;;;2.90;1.33;;;-7.30;75.80;;;;;;5151343;27;20625;-66
2022/06/13 11:27:39;;;;;;;1.60;1.10;;;-1.40;79.20;;;;;;5137231;27;20161;-68
2022/06/13 11:28:57;;;;;;;5.77;4.00;;;-1.80;78.90;;;;;;5142315;27;20229;-68
2022/06/13 11:31:26;;;;;;;4.60;3.37;;;-2.00;80.40;;;;;;5095493;27;20184;-68
2022/06/13 11:33:55;;;;;;;5.80;5.13;;;-2.70;81.60;;;;;;5102598;27;20282;-69
2022/06/13 11:36:30;;;;;;;2.60;1.60;;;-1.20;84.00;;;;;;5125246;27;20222;-68
2022/06/13 11:39:00;;;;;;;2.77;2.57;;;0.80;83.90;;;;;;5128226;27;20577;-69
2022/06/13 11:41:25;;;;;;;4.73;3.87;;;-4.30;81.60;;;;;;5119226;27;20181;-70
2022/06/13 11:44:02;;;;;;;1.77;1.37;;;-9.40;78.40;;;;;;5130350;27;20588;-69
2022/06/13 11:46:28;;;;;;;2.27;2.03;;;-12.30;76.10;;;;;;5127559;27;20464;-68
2022/06/13 11:48:59;;;;;;;3.87;2.50;;;-4.70;76.90;;;;;;5129925;27;20200;-70
2022/06/13 11:51:29;;;;;;;4.43;2.17;;;-7.00;75.60;;;;;;5130011;27;20165;-68
2022/06/13 11:53:57;;;;;;;3.87;2.00;;;-14.10;69.10;;;;;;5130239;27;20177;-70
2022/06/13 11:56:27;;;;;;;2.23;2.07;;;-11.20;70.80;;;;;;5128552;27;20177;-68
2022/06/13 11:58:55;;;;;;;4.97;1.73;;;-11.30;66.50;;;;;;5131891;27;20185;-68
2022/06/13 12:01:30;;;;;;;2.53;1.90;;;-5.80;68.20;;;;;;5127905;27;20182;-68
2022/06/13 12:04:19;;;;;;;2.63;1.47;;;-0.80;69.70;;;;;;5128096;27;20180;-69
2022/06/13 12:07:18;;;;;;;2.57;1.27;;;-3.20;69.00;;;;;;5129416;27;20185;-69
2022/06/13 12:09:52;;;;;;;3.50;2.43;;;-4.70;64.20;;;;;;5129671;27;20603;-68
2022/06/13 12:12:18;;;;;;;2.97;1.77;;;-3.90;63.50;;;;;;5127949;27;20177;-69
2022/06/13 12:14:44;;;;;;;7.07;1.37;;;-0.60;68.20;;;;;;5129319;27;20211;-69
2022/06/13 12:17:18;;;;;;;5.67;2.20;;;-4.20;68.00;;;;;;5129604;27;20181;-68
2022/06/13 12:20:00;;;;;;;3.80;1.70;;;-1.90;70.80;;;;;;5130655;27;20205;-69
2022/06/13 12:22:50;;;;;;;3.13;2.13;;;2.00;76.00;;;;;;5129594;27;20177;-68
2022/06/13 12:25:18;;;;;;;4.00;1.27;;;-1.60;76.50;;;;;;5129143;27;20173;-69
2022/06/13 12:28:21;;;;;;;7.90;2.20;;;-3.30;73.60;;;;;;5129541;27;20607;-69
2022/06/13 12:31:13;;;;;;;1.87;1.77;;;-4.90;64.80;;;;;;5126549;27;20201;-70
2022/06/13 12:34:02;;;;;;;2.53;1.83;;;-2.00;65.50;;;;;;5128889;27;20181;-71
2022/06/13 12:36:49;;;;;;;2.33;2.13;;;-4.00;62.40;;;;;;5129959;27;20603;-71
2022/06/13 12:39:41;;;;;;;1.90;1.20;;;-6.90;61.80;;;;;;5131177;27;20300;-71
2022/06/13 12:42:24;;;;;;;2.47;1.30;;;-4.40;59.50;;;;;;5129460;27;20187;-72
2022/06/13 12:45:21;;;;;;;2.03;1.60;;;1.10;65.50;;;;;;5128927;27;20184;-69
2022/06/13 12:47:56;;;;;;;10.33;2.80;;;-0.70;63.70;;;;;;5129866;27;20170;-69
2022/06/13 12:50:25;;;;;;;8.17;2.70;;;4.80;70.10;;;;;;5125613;27;20169;-70
2022/06/13 12:53:18;;;;;;;1.67;1.57;;;3.60;68.00;;;;;;5127039;27;20182;-70
2022/06/13 12:56:00;;;;;;;2.67;1.23;;;-1.70;62.30;;;;;;5129387;27;20205;-70
2022/06/13 12:58:48;;;;;;;4.03;2.07;;;-1.70;62.40;;;;;;5126734;27;20248;-69
2022/06/13 13:01:22;;;;;;;1.07;0.97;;;-0.90;58.70;;;;;;5129053;27;20194;-68
2022/06/13 13:03:57;;;;;;;3.50;1.70;;;1.50;63.50;;;;;;5133536;27;20178;-68
2022/06/13 13:07:01;;;;;;;2.20;1.63;;;5.80;71.90;;;;;;5131627;27;20247;-70
2022/06/13 13:10:04;;;;;;;2.83;2.63;;;0.80;65.90;;;;;;5126100;27;20481;-72
2022/06/13 13:13:01;;;;;;;4.37;3.07;;;0.70;60.20;;;;;;5127312;27;20227;-67
2022/06/13 13:15:27;;;;;;;2.33;1.97;;;2.90;60.60;;;;;;5128808;27;20193;-68
2022/06/13 13:18:11;;;;;;;4.10;1.67;;;3.90;63.10;;;;;;5129308;27;20630;-68
2022/06/13 13:21:18;;;;;;;2.03;1.80;;;2.20;59.70;;;;;;5126917;28;20222;-68
2022/06/13 13:24:02;;;;;;;12.30;3.40;;;1.70;56.80;;;;;;5083976;28;20614;-67
2022/06/13 13:26:51;;;;;;;3.30;1.77;;;1.10;56.70;;;;;;5121333;28;20588;-68
2022/06/13 13:29:20;;;;;;;5.37;1.93;;;4.20;61.90;;;;;;5128597;27;20169;-67
2022/06/13 13:32:18;;;;;;;1.90;1.30;;;4.50;62.30;;;;;;5128758;27;20904;-68
2022/06/13 13:35:11;;;;;;;6.17;1.50;;;5.00;62.70;;;;;;5127648;27;20290;-69
2022/06/13 13:37:56;;;;;;;2.40;1.93;;;4.80;67.00;;;;;;5130941;27;20226;-67
2022/06/13 13:40:35;;;;;;;5.50;2.13;;;4.80;70.10;;;;;;5133536;27;20260;-67
2022/06/13 13:43:24;;;;;;;3.40;3.10;;;5.50;72.80;;;;;;5132906;27;20610;-70
2022/06/13 13:46:08;;;;;;;4.90;1.20;;;6.50;76.50;;;;;;5131780;27;20280;-68
2022/06/13 13:48:59;;;;;;;2.90;1.97;;;3.10;69.10;;;;;;5132638;27;20245;-68